sensor_id;sensor_type;location;lat;lon;timestamp;temperature;humidity
63283;DHT22;49407;51.388;0.048;2022-10-20T00:01:59;13.40;99.90
63283;DHT22;49407;51.388;0.048;2022-10-20T00:04:46;13.40;99.90
63283;DHT22;49407;51.388;0.048;2022-10-20T00:07:13;13.40;99.90
63283;DHT22;49407;51.388;0.048;2022-10-20T00:09:40;13.50;99.90
63283;DHT22;49407;51.388;0.048;2022-10-20T00:12:06;13.50;99.90
63283;DHT22;49407;51.388;0.048;2022-10-20T00:14:34;13.60;99.90
63283;DHT22;49407;51.388;0.048;2022-10-20T00:17:01;13.60;99.90
63283;DHT22;49407;51.388;0.048;2022-10-20T00:19:28;13.60;99.90
63283;DHT22;49407;51.388;0.048;2022-10-20T00:21:55;13.60;99.90
63283;DHT22;49407;51.388;0.048;2022-10-20T00:24:23;13.60;99.90
63283;DHT22;49407;51.388;0.048;2022-10-20T00:26:50;13.60;99.90
63283;DHT22;49407;51.388;0.048;2022-10-20T00:29:17;13.60;99.90
63283;DHT22;49407;51.388;0.048;2022-10-20T00:31:49;13.60;99.90
63283;DHT22;49407;51.388;0.048;2022-10-20T00:34:35;13.60;99.90
63283;DHT22;49407;51.388;0.048;2022-10-20T00:37:02;13.60;99.90
63283;DHT22;49407;51.388;0.048;2022-10-20T00:39:28;13.60;99.90
63283;DHT22;49407;51.388;0.048;2022-10-20T00:41:56;13.60;99.90
63283;DHT22;49407;51.388;0.048;2022-10-20T00:44:59;13.60;99.90
63283;DHT22;49407;51.388;0.048;2022-10-20T00:47:43;13.60;99.90
63283;DHT22;49407;51.388;0.048;2022-10-20T00:50:21;13.70;99.90
63283;DHT22;49407;51.388;0.048;2022-10-20T00:52:52;13.70;99.90
63283;DHT22;49407;51.388;0.048;2022-10-20T00:55:30;13.70;99.90
63283;DHT22;49407;51.388;0.048;2022-10-20T00:57:59;13.80;99.90
63283;DHT22;49407;51.388;0.048;2022-10-20T01:00:27;13.80;99.90
63283;DHT22;49407;51.388;0.048;2022-10-20T01:05:59;13.80;99.90
63283;DHT22;49407;51.388;0.048;2022-10-20T01:08:26;13.90;99.90
63283;DHT22;49407;51.388;0.048;2022-10-20T01:10:57;13.90;99.90
63283;DHT22;49407;51.388;0.048;2022-10-20T01:24:42;14.00;99.90
63283;DHT22;49407;51.388;0.048;2022-10-20T01:27:29;14.00;99.90
63283;DHT22;49407;51.388;0.048;2022-10-20T01:32:58;14.00;99.90
63283;DHT22;49407;51.388;0.048;2022-10-20T01:38:27;14.10;99.90
63283;DHT22;49407;51.388;0.048;2022-10-20T01:43:45;14.20;99.90
63283;DHT22;49407;51.388;0.048;2022-10-20T01:46:14;14.30;99.90
63283;DHT22;49407;51.388;0.048;2022-10-20T01:48:41;14.30;99.90
63283;DHT22;49407;51.388;0.048;2022-10-20T01:51:09;14.30;99.90
63283;DHT22;49407;51.388;0.048;2022-10-20T01:53:36;14.40;99.90
63283;DHT22;49407;51.388;0.048;2022-10-20T01:56:04;14.40;99.90
63283;DHT22;49407;51.388;0.048;2022-10-20T02:01:32;14.50;99.90
63283;DHT22;49407;51.388;0.048;2022-10-20T02:04:06;14.60;99.90
63283;DHT22;49407;51.388;0.048;2022-10-20T02:06:42;14.70;99.90
63283;DHT22;49407;51.388;0.048;2022-10-20T02:09:39;14.80;99.90
63283;DHT22;49407;51.388;0.048;2022-10-20T02:12:28;14.80;99.90
63283;DHT22;49407;51.388;0.048;2022-10-20T02:14:59;14.90;99.90
63283;DHT22;49407;51.388;0.048;2022-10-20T02:17:28;14.90;99.90
63283;DHT22;49407;51.388;0.048;2022-10-20T02:19:55;14.90;99.90
63283;DHT22;49407;51.388;0.048;2022-10-20T02:22:23;14.90;99.90
63283;DHT22;49407;51.388;0.048;2022-10-20T02:27:42;15.00;99.90
63283;DHT22;49407;51.388;0.048;2022-10-20T02:30:14;15.00;99.90
63283;DHT22;49407;51.388;0.048;2022-10-20T02:32:43;15.10;99.90
63283;DHT22;49407;51.388;0.048;2022-10-20T02:35:20;15.10;99.90
63283;DHT22;49407;51.388;0.048;2022-10-20T02:37:47;15.10;99.90
63283;DHT22;49407;51.388;0.048;2022-10-20T02:40:14;15.10;99.90
63283;DHT22;49407;51.388;0.048;2022-10-20T02:42:41;15.10;99.90
63283;DHT22;49407;51.388;0.048;2022-10-20T02:45:09;15.10;99.90
63283;DHT22;49407;51.388;0.048;2022-10-20T02:47:36;15.10;99.90
63283;DHT22;49407;51.388;0.048;2022-10-20T02:50:05;15.20;99.90
63283;DHT22;49407;51.388;0.048;2022-10-20T02:52:33;15.20;99.90
63283;DHT22;49407;51.388;0.048;2022-10-20T02:55:00;15.20;99.90
63283;DHT22;49407;51.388;0.048;2022-10-20T02:57:27;15.20;99.90
63283;DHT22;49407;51.388;0.048;2022-10-20T02:59:54;15.20;99.90
63283;DHT22;49407;51.388;0.048;2022-10-20T03:02:20;15.20;99.90
63283;DHT22;49407;51.388;0.048;2022-10-20T03:07:52;15.10;99.90
63283;DHT22;49407;51.388;0.048;2022-10-20T03:10:20;15.10;99.90
63283;DHT22;49407;51.388;0.048;2022-10-20T03:12:47;15.10;99.90
63283;DHT22;49407;51.388;0.048;2022-10-20T03:15:14;15.20;99.90
63283;DHT22;49407;51.388;0.048;2022-10-20T03:17:41;15.20;99.90
63283;DHT22;49407;51.388;0.048;2022-10-20T03:20:08;15.20;99.90
63283;DHT22;49407;51.388;0.048;2022-10-20T03:22:35;15.20;99.90
63283;DHT22;49407;51.388;0.048;2022-10-20T03:25:03;15.20;99.90
63283;DHT22;49407;51.388;0.048;2022-10-20T03:27:30;15.30;99.90
63283;DHT22;49407;51.388;0.048;2022-10-20T03:29:57;15.30;99.90
63283;DHT22;49407;51.388;0.048;2022-10-20T03:32:24;15.30;99.90
63283;DHT22;49407;51.388;0.048;2022-10-20T03:34:51;15.30;99.90
63283;DHT22;49407;51.388;0.048;2022-10-20T03:37:18;15.30;99.90
63283;DHT22;49407;51.388;0.048;2022-10-20T03:39:45;15.30;99.90
63283;DHT22;49407;51.388;0.048;2022-10-20T03:42:12;15.30;99.90
63283;DHT22;49407;51.388;0.048;2022-10-20T03:44:42;15.40;99.90
63283;DHT22;49407;51.388;0.048;2022-10-20T03:47:12;15.40;99.90
63283;DHT22;49407;51.388;0.048;2022-10-20T03:49:39;15.40;99.90
63283;DHT22;49407;51.388;0.048;2022-10-20T03:52:06;15.40;99.90
63283;DHT22;49407;51.388;0.048;2022-10-20T03:54:35;15.40;99.90
63283;DHT22;49407;51.388;0.048;2022-10-20T03:57:01;15.40;99.90
63283;DHT22;49407;51.388;0.048;2022-10-20T03:59:33;15.40;99.90
63283;DHT22;49407;51.388;0.048;2022-10-20T04:02:00;15.40;99.90
63283;DHT22;49407;51.388;0.048;2022-10-20T04:04:27;15.40;99.90
63283;DHT22;49407;51.388;0.048;2022-10-20T04:06:54;15.40;99.90
63283;DHT22;49407;51.388;0.048;2022-10-20T04:09:21;15.40;99.90
63283;DHT22;49407;51.388;0.048;2022-10-20T04:11:48;15.40;99.90
63283;DHT22;49407;51.388;0.048;2022-10-20T04:14:17;15.40;99.90
63283;DHT22;49407;51.388;0.048;2022-10-20T04:16:44;15.40;99.90
63283;DHT22;49407;51.388;0.048;2022-10-20T04:19:11;15.40;99.90
63283;DHT22;49407;51.388;0.048;2022-10-20T04:21:37;15.50;99.90
63283;DHT22;49407;51.388;0.048;2022-10-20T04:24:06;15.50;99.90
63283;DHT22;49407;51.388;0.048;2022-10-20T04:26:33;15.50;99.90
63283;DHT22;49407;51.388;0.048;2022-10-20T04:29:00;15.50;99.90
63283;DHT22;49407;51.388;0.048;2022-10-20T04:31:28;15.50;99.90
63283;DHT22;49407;51.388;0.048;2022-10-20T04:33:55;15.50;99.90
63283;DHT22;49407;51.388;0.048;2022-10-20T04:36:22;15.50;99.90
63283;DHT22;49407;51.388;0.048;2022-10-20T04:38:48;15.50;99.90
63283;DHT22;49407;51.388;0.048;2022-10-20T04:41:15;15.50;99.90
63283;DHT22;49407;51.388;0.048;2022-10-20T04:43:49;15.50;99.90
63283;DHT22;49407;51.388;0.048;2022-10-20T04:46:16;15.50;99.90
63283;DHT22;49407;51.388;0.048;2022-10-20T04:48:43;15.60;99.90
63283;DHT22;49407;51.388;0.048;2022-10-20T04:51:11;15.60;99.90
63283;DHT22;49407;51.388;0.048;2022-10-20T04:53:41;15.60;99.90
63283;DHT22;49407;51.388;0.048;2022-10-20T04:56:12;15.60;99.90
63283;DHT22;49407;51.388;0.048;2022-10-20T04:58:39;15.60;99.90
63283;DHT22;49407;51.388;0.048;2022-10-20T05:01:08;15.60;99.90
63283;DHT22;49407;51.388;0.048;2022-10-20T05:03:54;15.60;99.90
63283;DHT22;49407;51.388;0.048;2022-10-20T05:06:24;15.60;99.90
63283;DHT22;49407;51.388;0.048;2022-10-20T05:08:53;15.60;99.90
63283;DHT22;49407;51.388;0.048;2022-10-20T05:11:21;15.60;99.90
63283;DHT22;49407;51.388;0.048;2022-10-20T05:13:49;15.60;99.90
63283;DHT22;49407;51.388;0.048;2022-10-20T05:16:16;15.60;99.90
63283;DHT22;49407;51.388;0.048;2022-10-20T05:18:44;15.60;99.90
63283;DHT22;49407;51.388;0.048;2022-10-20T05:21:14;15.60;99.90
63283;DHT22;49407;51.388;0.048;2022-10-20T05:23:42;15.60;99.90
63283;DHT22;49407;51.388;0.048;2022-10-20T05:26:11;15.60;99.90
63283;DHT22;49407;51.388;0.048;2022-10-20T05:28:42;15.60;99.90
63283;DHT22;49407;51.388;0.048;2022-10-20T05:31:10;15.60;99.90
63283;DHT22;49407;51.388;0.048;2022-10-20T05:33:42;15.60;99.90
63283;DHT22;49407;51.388;0.048;2022-10-20T05:36:10;15.60;99.90
63283;DHT22;49407;51.388;0.048;2022-10-20T05:38:38;15.60;99.90
63283;DHT22;49407;51.388;0.048;2022-10-20T05:41:10;15.60;99.90
63283;DHT22;49407;51.388;0.048;2022-10-20T05:43:40;15.60;99.90
63283;DHT22;49407;51.388;0.048;2022-10-20T05:46:08;15.50;99.90
63283;DHT22;49407;51.388;0.048;2022-10-20T05:48:34;15.60;99.90
63283;DHT22;49407;51.388;0.048;2022-10-20T05:51:14;15.60;99.90
63283;DHT22;49407;51.388;0.048;2022-10-20T05:54:02;15.50;99.90
63283;DHT22;49407;51.388;0.048;2022-10-20T05:56:30;15.50;99.90
63283;DHT22;49407;51.388;0.048;2022-10-20T05:58:57;15.50;99.90
63283;DHT22;49407;51.388;0.048;2022-10-20T06:01:29;15.50;99.90
63283;DHT22;49407;51.388;0.048;2022-10-20T06:04:19;15.50;99.90
63283;DHT22;49407;51.388;0.048;2022-10-20T06:06:50;15.50;99.90
63283;DHT22;49407;51.388;0.048;2022-10-20T06:09:18;15.50;99.90
63283;DHT22;49407;51.388;0.048;2022-10-20T06:11:46;15.50;99.90
63283;DHT22;49407;51.388;0.048;2022-10-20T06:14:34;15.50;99.90
63283;DHT22;49407;51.388;0.048;2022-10-20T06:17:01;15.50;99.90
63283;DHT22;49407;51.388;0.048;2022-10-20T06:19:28;15.50;99.90
63283;DHT22;49407;51.388;0.048;2022-10-20T06:21:55;15.50;99.90
63283;DHT22;49407;51.388;0.048;2022-10-20T06:24:23;15.50;99.90
63283;DHT22;49407;51.388;0.048;2022-10-20T06:26:50;15.50;99.90
63283;DHT22;49407;51.388;0.048;2022-10-20T06:29:18;15.60;99.90
63283;DHT22;49407;51.388;0.048;2022-10-20T06:31:47;15.50;99.90
63283;DHT22;49407;51.388;0.048;2022-10-20T06:34:17;15.50;99.90
63283;DHT22;49407;51.388;0.048;2022-10-20T06:36:45;15.60;99.90
63283;DHT22;49407;51.388;0.048;2022-10-20T06:39:18;15.60;99.90
63283;DHT22;49407;51.388;0.048;2022-10-20T06:41:49;15.60;99.90
63283;DHT22;49407;51.388;0.048;2022-10-20T06:47:43;15.60;99.90
63283;DHT22;49407;51.388;0.048;2022-10-20T06:50:10;15.60;99.90
63283;DHT22;49407;51.388;0.048;2022-10-20T06:52:37;15.60;99.90
63283;DHT22;49407;51.388;0.048;2022-10-20T06:55:05;15.60;99.90
63283;DHT22;49407;51.388;0.048;2022-10-20T06:57:31;15.60;99.90
63283;DHT22;49407;51.388;0.048;2022-10-20T06:59:58;15.60;99.90
63283;DHT22;49407;51.388;0.048;2022-10-20T07:02:25;15.60;99.90
63283;DHT22;49407;51.388;0.048;2022-10-20T07:04:52;15.60;99.90
63283;DHT22;49407;51.388;0.048;2022-10-20T07:07:19;15.60;99.90
63283;DHT22;49407;51.388;0.048;2022-10-20T07:09:46;15.70;99.90
63283;DHT22;49407;51.388;0.048;2022-10-20T07:12:13;15.60;99.90
63283;DHT22;49407;51.388;0.048;2022-10-20T07:14:42;15.60;99.90
63283;DHT22;49407;51.388;0.048;2022-10-20T07:17:09;15.70;99.90
63283;DHT22;49407;51.388;0.048;2022-10-20T07:19:36;15.70;99.90
63283;DHT22;49407;51.388;0.048;2022-10-20T07:22:03;15.70;99.90
63283;DHT22;49407;51.388;0.048;2022-10-20T07:24:31;15.70;99.90
63283;DHT22;49407;51.388;0.048;2022-10-20T07:26:58;15.70;99.90
63283;DHT22;49407;51.388;0.048;2022-10-20T07:29:25;15.70;99.90
63283;DHT22;49407;51.388;0.048;2022-10-20T07:31:52;15.70;99.90
63283;DHT22;49407;51.388;0.048;2022-10-20T07:34:20;15.70;99.90
63283;DHT22;49407;51.388;0.048;2022-10-20T07:36:52;15.70;99.90
63283;DHT22;49407;51.388;0.048;2022-10-20T07:39:20;15.70;99.90
63283;DHT22;49407;51.388;0.048;2022-10-20T07:41:47;15.80;99.90
63283;DHT22;49407;51.388;0.048;2022-10-20T07:44:16;15.80;99.90
63283;DHT22;49407;51.388;0.048;2022-10-20T07:46:44;15.80;99.90
63283;DHT22;49407;51.388;0.048;2022-10-20T07:49:11;15.80;99.90
63283;DHT22;49407;51.388;0.048;2022-10-20T07:51:58;15.90;99.90
63283;DHT22;49407;51.388;0.048;2022-10-20T07:54:27;15.80;99.90
63283;DHT22;49407;51.388;0.048;2022-10-20T07:56:54;15.90;99.90
63283;DHT22;49407;51.388;0.048;2022-10-20T07:59:21;15.90;99.90
63283;DHT22;49407;51.388;0.048;2022-10-20T08:01:48;15.80;99.90
63283;DHT22;49407;51.388;0.048;2022-10-20T08:04:16;15.90;99.90
63283;DHT22;49407;51.388;0.048;2022-10-20T08:06:43;15.90;99.90
63283;DHT22;49407;51.388;0.048;2022-10-20T08:09:12;15.80;99.90
63283;DHT22;49407;51.388;0.048;2022-10-20T08:11:39;15.90;99.90
63283;DHT22;49407;51.388;0.048;2022-10-20T08:17:11;15.90;99.90
63283;DHT22;49407;51.388;0.048;2022-10-20T08:19:38;15.90;99.90
63283;DHT22;49407;51.388;0.048;2022-10-20T08:22:18;15.90;99.90
63283;DHT22;49407;51.388;0.048;2022-10-20T08:24:46;15.90;99.90
63283;DHT22;49407;51.388;0.048;2022-10-20T08:27:13;16.00;99.90
63283;DHT22;49407;51.388;0.048;2022-10-20T08:29:39;16.00;99.90
63283;DHT22;49407;51.388;0.048;2022-10-20T08:32:06;16.00;99.90
63283;DHT22;49407;51.388;0.048;2022-10-20T08:34:33;16.10;99.90
63283;DHT22;49407;51.388;0.048;2022-10-20T08:37:00;16.10;99.90
63283;DHT22;49407;51.388;0.048;2022-10-20T08:39:27;16.10;99.90
63283;DHT22;49407;51.388;0.048;2022-10-20T08:41:55;16.20;99.90
63283;DHT22;49407;51.388;0.048;2022-10-20T08:44:58;16.20;99.90
63283;DHT22;49407;51.388;0.048;2022-10-20T08:47:30;16.40;99.90
63283;DHT22;49407;51.388;0.048;2022-10-20T08:50:00;16.50;99.90
63283;DHT22;49407;51.388;0.048;2022-10-20T08:52:28;16.60;99.90
63283;DHT22;49407;51.388;0.048;2022-10-20T08:57:46;16.50;99.90
63283;DHT22;49407;51.388;0.048;2022-10-20T09:00:17;16.50;99.90
63283;DHT22;49407;51.388;0.048;2022-10-20T09:03:08;16.50;99.90
63283;DHT22;49407;51.388;0.048;2022-10-20T09:05:40;16.50;99.90
63283;DHT22;49407;51.388;0.048;2022-10-20T09:08:08;16.50;99.90
63283;DHT22;49407;51.388;0.048;2022-10-20T09:10:46;16.50;99.90
63283;DHT22;49407;51.388;0.048;2022-10-20T09:16:31;16.50;99.90
63283;DHT22;49407;51.388;0.048;2022-10-20T09:19:19;16.50;99.90
63283;DHT22;49407;51.388;0.048;2022-10-20T09:21:51;16.50;99.90
63283;DHT22;49407;51.388;0.048;2022-10-20T09:24:20;16.50;99.90
63283;DHT22;49407;51.388;0.048;2022-10-20T09:26:49;16.50;99.90
63283;DHT22;49407;51.388;0.048;2022-10-20T09:29:36;16.50;99.90
63283;DHT22;49407;51.388;0.048;2022-10-20T09:37:51;16.50;99.90
63283;DHT22;49407;51.388;0.048;2022-10-20T09:40:19;16.50;99.90
63283;DHT22;49407;51.388;0.048;2022-10-20T09:42:56;16.50;99.90
63283;DHT22;49407;51.388;0.048;2022-10-20T09:45:29;16.60;99.90
63283;DHT22;49407;51.388;0.048;2022-10-20T09:48:18;16.60;99.90
63283;DHT22;49407;51.388;0.048;2022-10-20T09:50:50;16.70;99.90
63283;DHT22;49407;51.388;0.048;2022-10-20T09:53:19;16.80;99.90
63283;DHT22;49407;51.388;0.048;2022-10-20T09:55:48;16.80;99.90
63283;DHT22;49407;51.388;0.048;2022-10-20T09:58:36;16.80;99.90
63283;DHT22;49407;51.388;0.048;2022-10-20T10:01:14;16.90;99.90
63283;DHT22;49407;51.388;0.048;2022-10-20T10:03:54;16.80;99.90
63283;DHT22;49407;51.388;0.048;2022-10-20T10:09:34;16.80;99.90
63283;DHT22;49407;51.388;0.048;2022-10-20T10:12:16;16.70;99.90
63283;DHT22;49407;51.388;0.048;2022-10-20T10:17:50;16.60;99.90
63283;DHT22;49407;51.388;0.048;2022-10-20T10:22:44;16.40;99.90
63283;DHT22;49407;51.388;0.048;2022-10-20T10:25:21;16.30;99.90
63283;DHT22;49407;51.388;0.048;2022-10-20T10:27:58;16.30;99.90
63283;DHT22;49407;51.388;0.048;2022-10-20T10:30:29;16.30;99.90
63283;DHT22;49407;51.388;0.048;2022-10-20T10:32:57;16.30;99.90
63283;DHT22;49407;51.388;0.048;2022-10-20T10:35:39;16.30;99.90
63283;DHT22;49407;51.388;0.048;2022-10-20T10:38:12;16.30;99.90
63283;DHT22;49407;51.388;0.048;2022-10-20T10:46:18;16.50;99.90
63283;DHT22;49407;51.388;0.048;2022-10-20T10:56:59;18.00;99.90
63283;DHT22;49407;51.388;0.048;2022-10-20T10:59:31;18.20;99.90
63283;DHT22;49407;51.388;0.048;2022-10-20T11:05:28;18.20;99.90
63283;DHT22;49407;51.388;0.048;2022-10-20T11:08:04;18.30;99.90
63283;DHT22;49407;51.388;0.048;2022-10-20T11:13:11;18.50;99.90
63283;DHT22;49407;51.388;0.048;2022-10-20T11:21:28;18.90;99.90
63283;DHT22;49407;51.388;0.048;2022-10-20T11:24:13;18.80;99.90
63283;DHT22;49407;51.388;0.048;2022-10-20T11:26:46;18.70;99.90
63283;DHT22;49407;51.388;0.048;2022-10-20T11:29:28;18.60;99.90
63283;DHT22;49407;51.388;0.048;2022-10-20T11:34:46;18.80;99.90
63283;DHT22;49407;51.388;0.048;2022-10-20T11:37:20;18.90;99.90
63283;DHT22;49407;51.388;0.048;2022-10-20T11:39:54;19.00;99.90
63283;DHT22;49407;51.388;0.048;2022-10-20T11:42:57;18.90;99.90
63283;DHT22;49407;51.388;0.048;2022-10-20T11:48:16;18.70;99.90
63283;DHT22;49407;51.388;0.048;2022-10-20T11:53:53;18.50;99.90
63283;DHT22;49407;51.388;0.048;2022-10-20T12:05:17;18.10;99.90
63283;DHT22;49407;51.388;0.048;2022-10-20T12:08:03;18.00;99.90
63283;DHT22;49407;51.388;0.048;2022-10-20T12:19:28;17.40;99.90
63283;DHT22;49407;51.388;0.048;2022-10-20T12:27:19;17.10;99.90
63283;DHT22;49407;51.388;0.048;2022-10-20T12:29:49;17.00;99.90
63283;DHT22;49407;51.388;0.048;2022-10-20T12:32:36;17.00;99.90
63283;DHT22;49407;51.388;0.048;2022-10-20T12:37:38;16.80;99.90
63283;DHT22;49407;51.388;0.048;2022-10-20T12:42:39;16.90;99.90
63283;DHT22;49407;51.388;0.048;2022-10-20T12:47:47;16.90;99.90
63283;DHT22;49407;51.388;0.048;2022-10-20T12:50:34;17.00;99.90
63283;DHT22;49407;51.388;0.048;2022-10-20T12:56:08;17.40;99.90
63283;DHT22;49407;51.388;0.048;2022-10-20T12:58:37;17.60;99.90
63283;DHT22;49407;51.388;0.048;2022-10-20T13:01:23;17.70;99.90
63283;DHT22;49407;51.388;0.048;2022-10-20T13:03:52;17.80;99.90
63283;DHT22;49407;51.388;0.048;2022-10-20T13:09:18;17.80;99.90
63283;DHT22;49407;51.388;0.048;2022-10-20T13:11:56;17.90;99.90
63283;DHT22;49407;51.388;0.048;2022-10-20T13:14:34;17.90;99.90
63283;DHT22;49407;51.388;0.048;2022-10-20T13:17:11;17.90;99.90
63283;DHT22;49407;51.388;0.048;2022-10-20T13:19:46;17.90;99.90
63283;DHT22;49407;51.388;0.048;2022-10-20T13:22:36;17.80;99.90
63283;DHT22;49407;51.388;0.048;2022-10-20T13:25:16;17.70;99.90
63283;DHT22;49407;51.388;0.048;2022-10-20T13:27:44;17.80;99.90
63283;DHT22;49407;51.388;0.048;2022-10-20T13:30:19;17.80;99.90
63283;DHT22;49407;51.388;0.048;2022-10-20T13:32:53;17.90;99.90
63283;DHT22;49407;51.388;0.048;2022-10-20T13:41:21;17.90;99.90
63283;DHT22;49407;51.388;0.048;2022-10-20T13:44:24;18.00;99.90
63283;DHT22;49407;51.388;0.048;2022-10-20T13:49:57;18.00;99.90
63283;DHT22;49407;51.388;0.048;2022-10-20T13:52:28;17.90;99.90
63283;DHT22;49407;51.388;0.048;2022-10-20T13:54:58;17.80;99.90
63283;DHT22;49407;51.388;0.048;2022-10-20T13:57:27;17.60;99.90
63283;DHT22;49407;51.388;0.048;2022-10-20T14:02:29;17.30;99.90
63283;DHT22;49407;51.388;0.048;2022-10-20T14:05:11;17.20;99.90
63283;DHT22;49407;51.388;0.048;2022-10-20T14:07:43;17.20;99.90
63283;DHT22;49407;51.388;0.048;2022-10-20T14:10:29;17.30;99.90
63283;DHT22;49407;51.388;0.048;2022-10-20T14:12:59;17.40;99.90
63283;DHT22;49407;51.388;0.048;2022-10-20T14:15:34;17.70;99.90
63283;DHT22;49407;51.388;0.048;2022-10-20T14:18:05;17.70;99.90
63283;DHT22;49407;51.388;0.048;2022-10-20T14:20:34;17.50;99.90
63283;DHT22;49407;51.388;0.048;2022-10-20T14:23:05;17.50;99.90
63283;DHT22;49407;51.388;0.048;2022-10-20T14:25:32;18.30;99.90
63283;DHT22;49407;51.388;0.048;2022-10-20T14:28:00;19.00;99.90
63283;DHT22;49407;51.388;0.048;2022-10-20T14:30:32;19.70;99.90
63283;DHT22;49407;51.388;0.048;2022-10-20T14:33:12;20.10;99.90
63283;DHT22;49407;51.388;0.048;2022-10-20T14:35:42;20.20;99.90
63283;DHT22;49407;51.388;0.048;2022-10-20T14:38:29;19.70;99.90
63283;DHT22;49407;51.388;0.048;2022-10-20T14:40:58;19.00;99.90
63283;DHT22;49407;51.388;0.048;2022-10-20T14:46:44;18.20;99.90
63283;DHT22;49407;51.388;0.048;2022-10-20T14:49:33;18.00;99.90
63283;DHT22;49407;51.388;0.048;2022-10-20T14:52:27;17.90;99.90
63283;DHT22;49407;51.388;0.048;2022-10-20T14:54:51;18.30;99.90
63283;DHT22;49407;51.388;0.048;2022-10-20T14:59:59;18.40;99.90
63283;DHT22;49407;51.388;0.048;2022-10-20T15:02:33;18.10;99.90
63283;DHT22;49407;51.388;0.048;2022-10-20T15:07:54;17.90;99.90
63283;DHT22;49407;51.388;0.048;2022-10-20T15:10:24;17.90;99.90
63283;DHT22;49407;51.388;0.048;2022-10-20T15:15:57;17.80;99.90
63283;DHT22;49407;51.388;0.048;2022-10-20T15:18:25;17.70;99.90
63283;DHT22;49407;51.388;0.048;2022-10-20T15:20:54;17.80;99.90
63283;DHT22;49407;51.388;0.048;2022-10-20T15:23:26;17.90;99.90
63283;DHT22;49407;51.388;0.048;2022-10-20T15:26:04;17.80;99.90
63283;DHT22;49407;51.388;0.048;2022-10-20T15:28:46;17.80;99.90
63283;DHT22;49407;51.388;0.048;2022-10-20T15:31:21;17.70;99.90
63283;DHT22;49407;51.388;0.048;2022-10-20T15:33:50;17.60;99.90
63283;DHT22;49407;51.388;0.048;2022-10-20T15:36:23;18.10;99.90
63283;DHT22;49407;51.388;0.048;2022-10-20T15:38:55;18.50;99.90
63283;DHT22;49407;51.388;0.048;2022-10-20T15:41:27;18.50;99.90
63283;DHT22;49407;51.388;0.048;2022-10-20T15:44:01;18.20;99.90
63283;DHT22;49407;51.388;0.048;2022-10-20T15:46:29;17.90;99.90
63283;DHT22;49407;51.388;0.048;2022-10-20T15:48:56;17.70;99.90
63283;DHT22;49407;51.388;0.048;2022-10-20T15:51:26;17.50;99.90
63283;DHT22;49407;51.388;0.048;2022-10-20T15:53:57;17.30;99.90
63283;DHT22;49407;51.388;0.048;2022-10-20T15:56:24;17.10;99.90
63283;DHT22;49407;51.388;0.048;2022-10-20T15:58:51;16.90;99.90
63283;DHT22;49407;51.388;0.048;2022-10-20T16:01:20;16.80;99.90
63283;DHT22;49407;51.388;0.048;2022-10-20T16:04:18;16.60;99.90
63283;DHT22;49407;51.388;0.048;2022-10-20T16:06:45;16.50;99.90
63283;DHT22;49407;51.388;0.048;2022-10-20T16:09:12;16.40;99.90
63283;DHT22;49407;51.388;0.048;2022-10-20T16:11:42;16.40;99.90
63283;DHT22;49407;51.388;0.048;2022-10-20T16:16:59;16.40;99.90
63283;DHT22;49407;51.388;0.048;2022-10-20T16:19:26;16.40;99.90
63283;DHT22;49407;51.388;0.048;2022-10-20T16:21:53;16.40;99.90
63283;DHT22;49407;51.388;0.048;2022-10-20T16:24:21;16.40;99.90
63283;DHT22;49407;51.388;0.048;2022-10-20T16:26:48;16.40;99.90
63283;DHT22;49407;51.388;0.048;2022-10-20T16:29:15;16.40;99.90
63283;DHT22;49407;51.388;0.048;2022-10-20T16:31:42;16.40;99.90
63283;DHT22;49407;51.388;0.048;2022-10-20T16:34:10;16.30;99.90
63283;DHT22;49407;51.388;0.048;2022-10-20T16:36:37;16.30;99.90
63283;DHT22;49407;51.388;0.048;2022-10-20T16:39:04;16.10;99.90
63283;DHT22;49407;51.388;0.048;2022-10-20T16:41:31;16.00;99.90
63283;DHT22;49407;51.388;0.048;2022-10-20T16:43:58;15.80;99.90
63283;DHT22;49407;51.388;0.048;2022-10-20T16:46:27;15.60;99.90
63283;DHT22;49407;51.388;0.048;2022-10-20T16:48:53;15.50;99.90
63283;DHT22;49407;51.388;0.048;2022-10-20T16:51:22;15.40;99.90
63283;DHT22;49407;51.388;0.048;2022-10-20T16:54:08;15.30;99.90
63283;DHT22;49407;51.388;0.048;2022-10-20T16:56:35;15.20;99.90
63283;DHT22;49407;51.388;0.048;2022-10-20T16:59:01;15.10;99.90
63283;DHT22;49407;51.388;0.048;2022-10-20T17:01:28;15.10;99.90
63283;DHT22;49407;51.388;0.048;2022-10-20T17:03:56;15.00;99.90
63283;DHT22;49407;51.388;0.048;2022-10-20T17:06:24;15.00;99.90
63283;DHT22;49407;51.388;0.048;2022-10-20T17:08:52;15.00;99.90
63283;DHT22;49407;51.388;0.048;2022-10-20T17:11:22;15.10;99.90
63283;DHT22;49407;51.388;0.048;2022-10-20T17:13:50;15.10;99.90
63283;DHT22;49407;51.388;0.048;2022-10-20T17:16:20;15.10;99.90
63283;DHT22;49407;51.388;0.048;2022-10-20T17:18:54;15.10;99.90
63283;DHT22;49407;51.388;0.048;2022-10-20T17:21:21;15.10;99.90
63283;DHT22;49407;51.388;0.048;2022-10-20T17:24:12;15.10;99.90
63283;DHT22;49407;51.388;0.048;2022-10-20T17:26:40;15.00;99.90
63283;DHT22;49407;51.388;0.048;2022-10-20T17:29:07;14.90;99.90
63283;DHT22;49407;51.388;0.048;2022-10-20T17:31:36;14.80;99.90
63283;DHT22;49407;51.388;0.048;2022-10-20T17:34:03;14.60;99.90
63283;DHT22;49407;51.388;0.048;2022-10-20T17:36:30;14.50;99.90
63283;DHT22;49407;51.388;0.048;2022-10-20T17:39:00;14.30;99.90
63283;DHT22;49407;51.388;0.048;2022-10-20T17:41:28;14.20;99.90
63283;DHT22;49407;51.388;0.048;2022-10-20T17:43:59;14.10;99.90
63283;DHT22;49407;51.388;0.048;2022-10-20T17:46:27;14.00;99.90
63283;DHT22;49407;51.388;0.048;2022-10-20T17:48:53;13.80;99.90
63283;DHT22;49407;51.388;0.048;2022-10-20T17:51:23;13.70;99.90
63283;DHT22;49407;51.388;0.048;2022-10-20T17:53:57;13.60;99.90
63283;DHT22;49407;51.388;0.048;2022-10-20T17:56:26;13.50;99.90
63283;DHT22;49407;51.388;0.048;2022-10-20T17:58:54;13.50;99.90
63283;DHT22;49407;51.388;0.048;2022-10-20T18:01:24;13.30;99.90
63283;DHT22;49407;51.388;0.048;2022-10-20T18:04:11;13.30;99.90
63283;DHT22;49407;51.388;0.048;2022-10-20T18:06:38;13.20;99.90
63283;DHT22;49407;51.388;0.048;2022-10-20T18:09:08;13.10;99.90
63283;DHT22;49407;51.388;0.048;2022-10-20T18:11:42;13.10;99.90
63283;DHT22;49407;51.388;0.048;2022-10-20T18:14:11;13.00;99.90
63283;DHT22;49407;51.388;0.048;2022-10-20T18:16:39;13.00;99.90
63283;DHT22;49407;51.388;0.048;2022-10-20T18:19:06;13.00;99.90
63283;DHT22;49407;51.388;0.048;2022-10-20T18:21:33;12.90;99.90
63283;DHT22;49407;51.388;0.048;2022-10-20T18:24:04;12.90;99.90
63283;DHT22;49407;51.388;0.048;2022-10-20T18:26:33;12.80;99.90
63283;DHT22;49407;51.388;0.048;2022-10-20T18:29:02;12.80;99.90
63283;DHT22;49407;51.388;0.048;2022-10-20T18:31:30;12.70;99.90